createdAt,value
2018-06-25T00:00:08.252Z,16.08
2018-06-25T00:02:37.656Z,16.15
2018-06-25T00:05:07.110Z,16.14
2018-06-25T00:07:36.536Z,16.09
2018-06-25T00:10:05.980Z,16.07
2018-06-25T00:12:35.412Z,16.01
2018-06-25T00:15:04.972Z,15.99
2018-06-25T00:17:34.359Z,15.96
2018-06-25T00:20:03.801Z,15.93
2018-06-25T00:22:33.221Z,15.92
2018-06-25T00:25:02.649Z,15.86
2018-06-25T00:27:32.122Z,15.90
2018-06-25T00:30:01.687Z,15.87
2018-06-25T00:32:31.150Z,15.86
2018-06-25T00:35:00.533Z,15.85
2018-06-25T00:37:29.961Z,15.91
2018-06-25T00:39:59.361Z,15.90
2018-06-25T00:42:28.768Z,15.92
2018-06-25T00:44:58.168Z,15.92
2018-06-25T00:47:27.568Z,15.97
2018-06-25T00:49:57.007Z,15.94
2018-06-25T00:52:26.396Z,15.93
2018-06-25T00:54:55.868Z,15.95
2018-06-25T00:57:25.250Z,15.92
2018-06-25T00:59:55.779Z,15.88
2018-06-25T01:02:25.513Z,15.96
2018-06-25T01:04:54.935Z,15.99
2018-06-25T01:07:24.331Z,15.89
2018-06-25T01:09:53.739Z,15.88
2018-06-25T01:12:23.145Z,15.85
2018-06-25T01:14:52.551Z,15.85
2018-06-25T01:17:21.942Z,15.95
2018-06-25T01:19:51.321Z,15.95
2018-06-25T01:22:20.688Z,16.04
2018-06-25T01:24:50.107Z,15.98
2018-06-25T01:27:19.474Z,15.99
2018-06-25T01:29:48.880Z,16.04
2018-06-25T01:32:18.274Z,16.07
2018-06-25T01:34:47.685Z,16.05
2018-06-25T01:37:17.084Z,16.02
2018-06-25T01:39:46.480Z,16.06
2018-06-25T01:42:15.857Z,16.03
2018-06-25T01:44:45.280Z,16.04
2018-06-25T01:47:14.692Z,16.03
2018-06-25T01:49:44.135Z,16.01
2018-06-25T01:52:13.511Z,15.98
2018-06-25T01:54:42.939Z,16.05
2018-06-25T01:57:12.432Z,15.91
2018-06-25T01:59:41.858Z,15.95
2018-06-25T02:02:11.287Z,15.78
2018-06-25T02:04:40.697Z,15.76
2018-06-25T02:07:10.184Z,15.82
2018-06-25T02:09:39.585Z,15.82
2018-06-25T02:12:08.963Z,15.69
2018-06-25T02:14:38.379Z,15.75
2018-06-25T02:17:07.742Z,15.67
2018-06-25T02:19:37.199Z,15.71
2018-06-25T02:22:06.679Z,15.59
2018-06-25T02:24:36.213Z,15.70
2018-06-25T02:27:05.673Z,15.62
2018-06-25T02:29:35.142Z,15.60
2018-06-25T02:32:04.670Z,15.67
2018-06-25T02:34:34.132Z,15.68
2018-06-25T02:37:03.617Z,15.67
2018-06-25T02:39:33.094Z,15.75
2018-06-25T02:42:02.544Z,15.81
2018-06-25T02:44:32.025Z,15.81
2018-06-25T02:47:01.428Z,15.76
2018-06-25T02:49:30.858Z,15.82
2018-06-25T02:52:00.256Z,15.84
2018-06-25T02:54:29.665Z,15.83
2018-06-25T02:56:59.096Z,15.81
2018-06-25T02:59:28.583Z,15.81
2018-06-25T03:01:58.081Z,15.76
2018-06-25T03:04:27.487Z,15.75
2018-06-25T03:06:56.883Z,15.71
2018-06-25T03:09:26.361Z,15.72
2018-06-25T03:11:55.793Z,15.59
2018-06-25T03:14:25.236Z,15.64
2018-06-25T03:16:54.600Z,15.66
2018-06-25T03:19:24.083Z,15.68
2018-06-25T03:21:53.420Z,15.74
2018-06-25T03:24:22.846Z,15.72
2018-06-25T03:26:52.253Z,15.68
2018-06-25T03:29:21.667Z,15.64
2018-06-25T03:31:51.127Z,15.59
2018-06-25T03:34:20.497Z,15.60
2018-06-25T03:36:49.930Z,15.53
2018-06-25T03:39:19.436Z,15.49
2018-06-25T03:41:48.843Z,15.60
2018-06-25T03:44:18.266Z,15.65
2018-06-25T03:46:47.750Z,15.45
2018-06-25T03:49:17.158Z,15.58
2018-06-25T03:51:46.615Z,15.52
2018-06-25T03:54:16.017Z,15.50
2018-06-25T03:56:45.462Z,15.54
2018-06-25T03:59:14.928Z,15.52
2018-06-25T04:01:44.366Z,15.57
2018-06-25T04:04:14.818Z,15.62
2018-06-25T04:06:44.511Z,15.64
2018-06-25T04:09:14.500Z,15.64
2018-06-25T04:11:44.357Z,15.62
2018-06-25T04:14:14.009Z,15.67
2018-06-25T04:16:43.795Z,15.66
2018-06-25T04:19:13.654Z,15.68
2018-06-25T04:21:43.391Z,15.65
2018-06-25T04:24:13.273Z,15.68
2018-06-25T04:26:43.069Z,15.71
2018-06-25T04:29:12.956Z,15.69
2018-06-25T04:31:43.237Z,15.73
2018-06-25T04:34:13.127Z,15.64
2018-06-25T04:36:43.376Z,15.69
2018-06-25T04:39:13.525Z,15.76
2018-06-25T04:41:43.619Z,15.72
2018-06-25T04:44:13.571Z,15.67
2018-06-25T04:46:43.653Z,15.75
2018-06-25T04:49:14.076Z,15.82
2018-06-25T04:51:43.587Z,15.87
2018-06-25T04:54:13.023Z,15.80
2018-06-25T04:56:42.572Z,15.79
2018-06-25T04:59:11.976Z,15.87
2018-06-25T05:01:41.421Z,15.86
2018-06-25T05:04:10.885Z,15.89
2018-06-25T05:06:40.256Z,15.89
2018-06-25T05:09:10.620Z,15.91
2018-06-25T05:11:40.505Z,15.90
2018-06-25T05:14:20.839Z,15.92
2018-06-25T05:16:50.336Z,15.88
2018-06-25T05:19:19.764Z,15.88
2018-06-25T05:21:49.172Z,15.85
2018-06-25T05:24:18.590Z,15.82
2018-06-25T05:26:47.989Z,15.88
2018-06-25T05:29:17.556Z,15.90
2018-06-25T05:31:46.800Z,15.95
2018-06-25T05:34:16.207Z,15.93
2018-06-25T05:36:45.629Z,15.92
2018-06-25T05:39:15.040Z,15.90
2018-06-25T05:41:44.541Z,15.96
2018-06-25T05:44:14.274Z,15.92
2018-06-25T05:46:43.761Z,15.96
2018-06-25T05:49:13.231Z,16.03
2018-06-25T05:51:42.867Z,15.99
2018-06-25T05:54:12.258Z,15.99
2018-06-25T05:56:41.682Z,15.98
2018-06-25T05:59:11.101Z,15.99
2018-06-25T06:01:40.551Z,15.93
2018-06-25T06:04:09.638Z,15.97
2018-06-25T06:06:39.085Z,15.93
2018-06-25T06:09:09.692Z,15.87
2018-06-25T06:11:39.199Z,15.76
2018-06-25T06:14:08.627Z,15.79
2018-06-25T06:16:38.074Z,15.82
2018-06-25T06:19:07.517Z,15.70
2018-06-25T06:21:36.959Z,15.62
2018-06-25T06:24:06.320Z,15.72
2018-06-25T06:26:35.718Z,15.79
2018-06-25T06:29:05.118Z,15.83
2018-06-25T06:31:34.554Z,15.67
2018-06-25T06:34:04.051Z,15.68
2018-06-25T06:36:33.473Z,15.81
2018-06-25T06:39:03.003Z,15.96
2018-06-25T06:41:32.450Z,16.04
2018-06-25T06:44:01.605Z,15.99
2018-06-25T06:46:31.006Z,16.05
2018-06-25T06:49:00.478Z,16.13
2018-06-25T06:51:29.889Z,16.11
2018-06-25T06:53:59.338Z,16.01
2018-06-25T06:56:28.719Z,16.04
2018-06-25T06:58:58.172Z,15.97
2018-06-25T07:01:27.301Z,16.10
2018-06-25T07:03:57.028Z,16.14
2018-06-25T07:06:26.470Z,16.26
2018-06-25T07:08:55.993Z,16.28
2018-06-25T07:11:25.121Z,16.26
2018-06-25T07:13:54.526Z,16.28
2018-06-25T07:16:23.953Z,16.32
2018-06-25T07:18:53.386Z,16.37
2018-06-25T07:21:22.811Z,16.46
2018-06-25T07:23:51.935Z,16.38
2018-06-25T07:26:24.378Z,16.34
2018-06-25T07:28:54.787Z,16.34
2018-06-25T07:31:24.332Z,16.33
2018-06-25T07:33:53.471Z,16.34
2018-06-25T07:36:22.966Z,16.29
2018-06-25T07:38:52.535Z,16.29
2018-06-25T07:41:21.876Z,16.32
2018-06-25T07:43:51.280Z,16.32
2018-06-25T07:46:20.683Z,16.37
2018-06-25T07:48:50.247Z,16.30
2018-06-25T07:51:19.709Z,16.37
2018-06-25T07:53:49.200Z,16.39
2018-06-25T07:56:18.552Z,16.31
2018-06-25T07:58:48.537Z,16.40
2018-06-25T08:01:17.943Z,16.42
2018-06-25T08:03:47.407Z,16.45
2018-06-25T08:06:16.839Z,16.40
2018-06-25T08:08:46.246Z,16.40
2018-06-25T08:11:15.671Z,16.35
2018-06-25T08:13:45.126Z,16.27
2018-06-25T08:16:15.205Z,16.32
2018-06-25T08:18:44.520Z,16.30
2018-06-25T08:21:13.913Z,16.43
2018-06-25T08:23:43.587Z,16.41
2018-06-25T08:26:13.009Z,16.38
2018-06-25T08:28:42.420Z,16.45
2018-06-25T08:31:11.974Z,16.51
2018-06-25T08:33:41.449Z,16.48
2018-06-25T08:36:12.321Z,16.52
2018-06-25T08:38:41.758Z,16.51
2018-06-25T08:41:11.173Z,16.60
2018-06-25T08:43:40.615Z,16.64
2018-06-25T08:46:10.082Z,16.63
2018-06-25T08:48:39.516Z,16.81
2018-06-25T08:51:08.920Z,16.98
2018-06-25T08:53:38.299Z,17.15
2018-06-25T08:56:07.788Z,17.24
2018-06-25T08:58:37.247Z,17.39
2018-06-25T09:01:06.445Z,17.53
2018-06-25T09:03:35.836Z,17.56
2018-06-25T09:06:05.259Z,17.66
2018-06-25T09:08:34.664Z,17.70
2018-06-25T09:11:04.082Z,17.78
2018-06-25T09:13:33.519Z,17.58
2018-06-25T09:16:02.908Z,17.61
2018-06-25T09:18:32.288Z,17.67
2018-06-25T09:21:01.485Z,17.67
2018-06-25T09:23:31.150Z,17.84
2018-06-25T09:26:00.560Z,17.99
2018-06-25T09:28:29.986Z,18.12
2018-06-25T09:30:59.406Z,18.18
2018-06-25T09:33:28.554Z,18.32
2018-06-25T09:35:57.944Z,18.14
2018-06-25T09:38:27.360Z,18.23
2018-06-25T09:40:56.839Z,18.30
2018-06-25T09:43:26.179Z,18.46
2018-06-25T09:45:55.682Z,18.46
2018-06-25T09:48:25.122Z,18.33
2018-06-25T09:50:54.610Z,18.28
2018-06-25T09:53:23.977Z,18.29
2018-06-25T09:55:53.341Z,18.18
2018-06-25T09:58:22.492Z,18.25
2018-06-25T10:00:57.042Z,18.21
2018-06-25T10:03:26.638Z,18.25
2018-06-25T10:05:55.987Z,18.26
2018-06-25T10:08:25.413Z,18.33
2018-06-25T10:10:54.840Z,18.49
2018-06-25T10:13:24.221Z,18.38
2018-06-25T10:15:53.689Z,18.40
2018-06-25T10:18:23.164Z,18.23
2018-06-25T10:20:52.611Z,18.16
2018-06-25T10:23:22.001Z,17.94
2018-06-25T10:25:51.397Z,17.70
2018-06-25T10:28:20.842Z,17.88
2018-06-25T10:30:50.242Z,18.01
2018-06-25T10:33:19.762Z,17.98
2018-06-25T10:35:49.203Z,18.24
2018-06-25T10:38:18.654Z,18.45
2018-06-25T10:40:48.056Z,18.47
2018-06-25T10:43:17.463Z,18.59
2018-06-25T10:45:46.915Z,18.79
2018-06-25T10:48:16.424Z,18.84
2018-06-25T10:50:45.818Z,18.83
2018-06-25T10:53:15.201Z,18.91
2018-06-25T10:55:44.586Z,18.97
2018-06-25T10:58:14.035Z,18.92
2018-06-25T11:00:43.413Z,19.08
2018-06-25T11:03:13.375Z,19.15
2018-06-25T11:05:42.757Z,19.26
2018-06-25T11:08:12.259Z,19.24
2018-06-25T11:10:41.682Z,19.07
2018-06-25T11:13:11.267Z,19.05
2018-06-25T11:15:41.569Z,18.91
2018-06-25T11:18:11.081Z,19.15
2018-06-25T11:20:40.614Z,19.20
2018-06-25T11:23:09.988Z,19.24
2018-06-25T11:25:39.452Z,19.47
2018-06-25T11:28:08.910Z,19.49
2018-06-25T11:30:38.374Z,19.52
2018-06-25T11:33:07.825Z,19.66
2018-06-25T11:35:37.255Z,19.50
2018-06-25T11:38:06.942Z,19.44
2018-06-25T11:40:36.390Z,19.59
2018-06-25T11:43:05.926Z,19.44
2018-06-25T11:45:35.352Z,19.36
2018-06-25T11:48:04.812Z,19.40
2018-06-25T11:50:33.979Z,19.40
2018-06-25T11:53:03.378Z,19.35
2018-06-25T11:55:32.871Z,19.20
2018-06-25T11:58:02.346Z,19.23
2018-06-25T12:00:31.484Z,19.37
2018-06-25T12:03:01.088Z,19.51
2018-06-25T12:05:30.081Z,19.70
2018-06-25T12:07:59.463Z,19.78
2018-06-25T12:10:28.991Z,19.98
2018-06-25T12:12:58.365Z,20.14
2018-06-25T12:15:27.770Z,20.08
2018-06-25T12:17:56.967Z,20.02
2018-06-25T12:20:26.364Z,20.28
2018-06-25T12:22:55.552Z,20.36
2018-06-25T12:25:24.919Z,19.98
2018-06-25T12:27:54.326Z,19.66
2018-06-25T12:30:23.705Z,19.79
2018-06-25T12:32:53.135Z,19.56
2018-06-25T12:35:22.564Z,19.59
2018-06-25T12:37:52.085Z,19.57
2018-06-25T12:40:21.453Z,19.70
2018-06-25T12:42:50.846Z,19.75
2018-06-25T12:45:20.377Z,19.75
2018-06-25T12:47:49.828Z,19.90
2018-06-25T12:50:19.318Z,20.27
2018-06-25T12:52:48.750Z,20.49
2018-06-25T12:55:18.264Z,20.56
2018-06-25T12:57:47.690Z,20.44
2018-06-25T13:00:17.058Z,20.10
2018-06-25T13:02:46.556Z,20.12
2018-06-25T13:05:15.948Z,20.17
2018-06-25T13:07:45.383Z,20.29
2018-06-25T13:10:14.863Z,20.23
2018-06-25T13:12:44.015Z,20.08
2018-06-25T13:15:13.452Z,20.14
2018-06-25T13:17:42.589Z,20.40
2018-06-25T13:20:11.982Z,20.71
2018-06-25T13:22:41.432Z,20.80
2018-06-25T13:25:10.850Z,20.95
2018-06-25T13:27:40.264Z,20.92
2018-06-25T13:30:09.412Z,20.97
2018-06-25T13:32:38.928Z,20.86
2018-06-25T13:35:08.402Z,20.80
2018-06-25T13:37:37.924Z,20.74
2018-06-25T13:40:07.453Z,20.75
2018-06-25T13:42:36.856Z,21.08
2018-06-25T13:45:06.937Z,21.31
2018-06-25T13:47:36.089Z,21.48
2018-06-25T13:50:05.735Z,21.68
2018-06-25T13:52:35.236Z,21.61
2018-06-25T13:55:04.819Z,21.58
2018-06-25T13:57:34.334Z,21.62
2018-06-25T14:00:03.945Z,21.45
2018-06-25T14:02:33.354Z,21.61
2018-06-25T14:05:02.807Z,21.92
2018-06-25T14:07:32.249Z,22.00
2018-06-25T14:10:01.881Z,21.98
2018-06-25T14:12:31.263Z,22.01
2018-06-25T14:15:00.780Z,21.76
2018-06-25T14:17:30.302Z,22.00
2018-06-25T14:19:59.440Z,22.19
2018-06-25T14:22:28.939Z,22.23
2018-06-25T14:24:59.341Z,22.18
2018-06-25T14:27:33.429Z,21.91
2018-06-25T14:30:03.088Z,21.66
2018-06-25T14:32:33.427Z,21.57
2018-06-25T14:35:09.685Z,21.62
2018-06-25T14:37:39.930Z,21.71
2018-06-25T14:40:10.163Z,21.93
2018-06-25T14:42:39.946Z,22.16
2018-06-25T14:45:10.171Z,21.86
2018-06-25T14:47:40.429Z,21.74
2018-06-25T14:50:10.360Z,22.16
2018-06-25T14:52:40.361Z,22.38
2018-06-25T14:55:09.800Z,22.74
2018-06-25T14:57:39.220Z,22.77
2018-06-25T15:00:08.719Z,23.05
2018-06-25T15:02:38.143Z,23.33
2018-06-25T15:05:07.668Z,23.48
2018-06-25T15:07:37.038Z,23.35
2018-06-25T15:10:06.502Z,22.96
2018-06-25T15:12:35.905Z,22.98
2018-06-25T15:15:05.514Z,23.13
2018-06-25T15:17:35.066Z,23.43
2018-06-25T15:20:04.563Z,23.94
2018-06-25T15:22:33.959Z,23.99
2018-06-25T15:25:03.096Z,23.55
2018-06-25T15:27:32.529Z,23.35
2018-06-25T15:30:02.009Z,23.12
2018-06-25T15:32:32.424Z,23.07
2018-06-25T15:35:02.218Z,22.66
2018-06-25T15:37:31.725Z,22.26
2018-06-25T15:40:01.205Z,22.30
2018-06-25T15:42:30.690Z,22.59
2018-06-25T15:45:00.070Z,23.20
2018-06-25T15:47:29.485Z,23.76
2018-06-25T15:49:58.929Z,24.39
2018-06-25T15:52:28.426Z,24.47
2018-06-25T15:54:57.863Z,24.03
2018-06-25T15:57:27.284Z,23.23
2018-06-25T15:59:56.822Z,22.95
2018-06-25T16:02:26.103Z,23.28
2018-06-25T16:04:55.543Z,23.62
2018-06-25T16:07:24.950Z,23.95
2018-06-25T16:09:54.401Z,23.79
2018-06-25T16:12:23.833Z,23.55
2018-06-25T16:14:53.272Z,23.89
2018-06-25T16:17:22.796Z,23.83
2018-06-25T16:19:52.571Z,23.62
2018-06-25T16:22:22.004Z,23.35
2018-06-25T16:24:51.472Z,23.38
2018-06-25T16:27:20.953Z,23.19
2018-06-25T16:29:50.368Z,22.96
2018-06-25T16:32:19.873Z,22.74
2018-06-25T16:34:49.344Z,22.34
2018-06-25T16:37:18.778Z,22.16
2018-06-25T16:39:48.193Z,22.26
2018-06-25T16:42:17.629Z,22.50
2018-06-25T16:44:47.088Z,23.16
2018-06-25T16:47:16.648Z,23.77
2018-06-25T16:49:46.002Z,24.24
2018-06-25T16:52:15.524Z,24.79
2018-06-25T16:54:44.982Z,24.74
2018-06-25T16:57:14.464Z,24.98
2018-06-25T16:59:43.926Z,25.40
2018-06-25T17:02:13.378Z,25.29
2018-06-25T17:04:42.849Z,25.61
2018-06-25T17:07:12.305Z,25.57
2018-06-25T17:09:41.781Z,25.19
2018-06-25T17:12:11.188Z,25.12
2018-06-25T17:14:40.680Z,25.28
2018-06-25T17:17:10.166Z,25.70
2018-06-25T17:19:39.630Z,25.81
2018-06-25T17:22:09.080Z,25.71
2018-06-25T17:24:38.510Z,25.76
2018-06-25T17:27:08.014Z,25.58
2018-06-25T17:29:37.524Z,25.62
2018-06-25T17:32:06.935Z,25.45
2018-06-25T17:34:36.420Z,24.90
2018-06-25T17:37:05.838Z,24.44
2018-06-25T17:39:35.323Z,23.80
2018-06-25T17:42:05.391Z,23.34
2018-06-25T17:44:34.880Z,22.79
2018-06-25T17:47:04.364Z,22.64
2018-06-25T17:49:33.781Z,22.51
2018-06-25T17:52:03.242Z,22.15
2018-06-25T17:54:32.705Z,22.03
2018-06-25T17:57:02.116Z,21.82
2018-06-25T17:59:31.564Z,21.66
2018-06-25T18:02:01.535Z,21.49
2018-06-25T18:04:31.017Z,21.30
2018-06-25T18:07:00.461Z,21.24
2018-06-25T18:09:29.864Z,21.04
2018-06-25T18:11:59.341Z,20.97
2018-06-25T18:14:28.884Z,20.88
2018-06-25T18:16:59.064Z,20.67
2018-06-25T18:19:28.488Z,20.48
2018-06-25T18:21:57.944Z,20.41
2018-06-25T18:24:27.682Z,20.32
2018-06-25T18:26:57.707Z,20.29
2018-06-25T18:29:27.103Z,20.19
2018-06-25T18:31:56.623Z,20.28
2018-06-25T18:34:26.042Z,20.06
2018-06-25T18:36:55.539Z,20.15
2018-06-25T18:39:25.075Z,20.10
2018-06-25T18:41:54.516Z,19.91
2018-06-25T18:44:23.948Z,19.89
2018-06-25T18:46:53.441Z,19.83
2018-06-25T18:49:22.902Z,19.83
2018-06-25T18:51:52.097Z,19.63
2018-06-25T18:54:21.562Z,19.55
2018-06-25T18:56:51.035Z,19.45
2018-06-25T18:59:20.520Z,19.49
2018-06-25T19:01:49.869Z,19.41
2018-06-25T19:04:19.356Z,19.39
2018-06-25T19:06:48.801Z,19.33
2018-06-25T19:09:18.304Z,19.03
2018-06-25T19:11:47.876Z,18.90
2018-06-25T19:14:17.281Z,18.98
2018-06-25T19:16:46.749Z,18.70
2018-06-25T19:19:16.187Z,18.72
2018-06-25T19:21:45.635Z,18.50
2018-06-25T19:24:15.073Z,18.44
2018-06-25T19:26:44.469Z,18.53
2018-06-25T19:29:13.922Z,18.31
2018-06-25T19:31:43.333Z,18.29
2018-06-25T19:34:12.837Z,18.20
2018-06-25T19:36:42.288Z,18.18
2018-06-25T19:39:13.421Z,18.03
2018-06-25T19:41:42.850Z,17.96
2018-06-25T19:44:12.676Z,18.00
2018-06-25T19:46:42.180Z,17.88
2018-06-25T19:49:11.606Z,17.66
2018-06-25T19:51:41.104Z,17.50
2018-06-25T19:54:10.613Z,17.50
2018-06-25T19:56:39.994Z,17.46
2018-06-25T19:59:09.467Z,17.47
2018-06-25T20:01:38.882Z,17.52
2018-06-25T20:04:08.313Z,17.36
2018-06-25T20:06:37.734Z,17.47
2018-06-25T20:09:11.165Z,17.39
2018-06-25T20:11:41.005Z,17.32
2018-06-25T20:14:10.745Z,17.32
2018-06-25T20:16:40.234Z,17.15
2018-06-25T20:19:09.628Z,16.95
2018-06-25T20:21:39.064Z,16.72
2018-06-25T20:24:08.588Z,16.58
2018-06-25T20:26:38.091Z,16.62
2018-06-25T20:29:07.557Z,16.69
2018-06-25T20:31:37.009Z,16.64
2018-06-25T20:34:06.618Z,16.54
2018-06-25T20:36:36.034Z,16.56
2018-06-25T20:39:09.606Z,16.45
2018-06-25T20:41:39.048Z,16.47
2018-06-25T20:44:08.466Z,16.36
2018-06-25T20:46:37.908Z,16.37
2018-06-25T20:49:07.398Z,16.30
2018-06-25T20:51:36.906Z,16.30
2018-06-25T20:54:06.300Z,16.19
2018-06-25T20:56:35.726Z,16.17
2018-06-25T20:59:05.375Z,16.17
2018-06-25T21:01:34.892Z,15.92
2018-06-25T21:04:04.399Z,15.91
2018-06-25T21:06:33.801Z,16.08
2018-06-25T21:09:03.335Z,16.00
2018-06-25T21:11:32.736Z,16.06
2018-06-25T21:14:02.149Z,16.01
2018-06-25T21:16:31.610Z,15.76
2018-06-25T21:19:01.152Z,15.75
2018-06-25T21:21:30.752Z,15.60
2018-06-25T21:24:00.218Z,15.56
2018-06-25T21:26:29.648Z,15.45
2018-06-25T21:28:59.058Z,15.30
2018-06-25T21:31:28.498Z,15.45
2018-06-25T21:33:57.959Z,15.40
2018-06-25T21:36:27.347Z,15.27
2018-06-25T21:38:56.783Z,15.28
2018-06-25T21:41:26.241Z,15.28
2018-06-25T21:43:55.696Z,15.06
2018-06-25T21:46:25.158Z,14.99
2018-06-25T21:48:54.573Z,14.98
2018-06-25T21:51:24.180Z,15.11
2018-06-25T21:53:53.616Z,15.01
2018-06-25T21:56:23.124Z,15.05
2018-06-25T21:58:52.524Z,14.96
2018-06-25T22:01:21.935Z,14.80
2018-06-25T22:03:51.380Z,14.88
2018-06-25T22:06:20.817Z,14.81
2018-06-25T22:08:50.246Z,14.64
2018-06-25T22:11:19.748Z,14.82
2018-06-25T22:13:49.247Z,14.80
2018-06-25T22:16:18.671Z,14.86
2018-06-25T22:18:48.078Z,14.68
2018-06-25T22:21:17.481Z,14.68
2018-06-25T22:23:46.870Z,14.51
2018-06-25T22:26:16.265Z,14.56
2018-06-25T22:28:45.694Z,14.49
2018-06-25T22:31:15.084Z,14.37
2018-06-25T22:33:44.505Z,14.38
2018-06-25T22:36:13.879Z,14.41
2018-06-25T22:38:43.242Z,14.40
2018-06-25T22:41:12.686Z,14.42
2018-06-25T22:43:42.087Z,14.42
2018-06-25T22:46:11.527Z,14.44
2018-06-25T22:48:40.918Z,14.36
2018-06-25T22:51:10.308Z,14.22
2018-06-25T22:53:39.725Z,14.26
2018-06-25T22:56:09.187Z,14.22
2018-06-25T22:58:38.588Z,14.00
2018-06-25T23:01:08.025Z,13.95
2018-06-25T23:03:37.470Z,14.09
2018-06-25T23:06:06.895Z,13.97
2018-06-25T23:08:36.228Z,13.90
2018-06-25T23:11:05.693Z,13.85
2018-06-25T23:13:35.115Z,13.83
2018-06-25T23:16:04.553Z,13.77
2018-06-25T23:18:33.975Z,13.85
2018-06-25T23:21:03.423Z,13.89
2018-06-25T23:23:32.869Z,13.98
2018-06-25T23:26:02.306Z,14.07
2018-06-25T23:28:31.764Z,13.86
2018-06-25T23:31:01.240Z,13.79
2018-06-25T23:33:30.687Z,13.77
2018-06-25T23:36:00.108Z,13.67
2018-06-25T23:38:29.542Z,13.71
2018-06-25T23:40:59.011Z,13.56
2018-06-25T23:43:28.454Z,13.52
2018-06-25T23:45:57.895Z,13.52
2018-06-25T23:48:27.383Z,13.59
2018-06-25T23:50:56.809Z,13.66
2018-06-25T23:53:26.329Z,13.61
2018-06-25T23:55:55.777Z,13.52
2018-06-25T23:58:25.248Z,13.69
